Oceanside 95 — WBC8822 — position and weather

sailwx.info

Track history (hours):
 
Tides and Currents Weather Stations Pressure Air Temp Water Temp Dewpoint Dewpoint Depression Visibility Wind Speed Wind Dir Waves Ship Positions

Oceanside 95

Owner: HELGRENS OCEANSIDE SPORTFISHING TRIPS IN, OCEANSIDE, CA. More information available from US FCC via Universal Licensing System and Coast Guard Vessel Documentation Center.

Last reported at 2017-Nov-19 21:30 UTC. Time now 2017-Nov-19 21:57 UTC.
Position N 33°12' W 117°23'.

Type: Wing in ground effect craft. MMSI: 367150450.

Date/timePositionNaut miles runAvg speedWind from/ knotsBaromVisibWave heightAir tempDewpointWater temp
2017-Nov-19 21:30N 33°12' W 117°23'0 0.0
2017-Nov-19 21:00N 33°12' W 117°23'0 0.0
2017-Nov-19 20:30N 33°12' W 117°23'0 0.0
2017-Nov-19 20:00N 33°12' W 117°23'0 0.0
2017-Nov-19 19:30N 33°12' W 117°23'0 0.0
2017-Nov-19 19:00N 33°12' W 117°23'0 0.0
2017-Nov-19 18:30N 33°12' W 117°23'0 0.0
2017-Nov-19 17:59N 33°12' W 117°23'0 0.0
2017-Nov-19 17:30N 33°12' W 117°23'0 0.0
2017-Nov-19 16:59N 33°12' W 117°23'0 0.0
2017-Nov-19 16:30N 33°12' W 117°23'0 0.0
2017-Nov-19 16:00N 33°12' W 117°23'0 0.0
2017-Nov-19 15:26N 33°12' W 117°23'0 0.0
2017-Nov-19 14:58N 33°12' W 117°23'0 0.0
2017-Nov-19 14:30N 33°12' W 117°23'0 0.0
2017-Nov-19 14:00N 33°12' W 117°23'3 5.9
2017-Nov-19 13:30N 33°10' W 117°26'4 7.9
2017-Nov-19 13:00N 33°07' W 117°28'4 8.0
2017-Nov-19 12:30N 33°04' W 117°31'4 8.0
2017-Nov-19 12:00N 33°00' W 117°34'4 8.0
2017-Nov-19 11:30N 32°57' W 117°36'4 8.1
2017-Nov-19 11:00N 32°53' W 117°39'4 8.0
2017-Nov-19 10:30N 32°50' W 117°41'4 7.8
2017-Nov-19 10:00N 32°47' W 117°44'4 7.8
2017-Nov-19 09:30N 32°43' W 117°46'4 7.8
2017-Nov-19 09:00N 32°40' W 117°49'4 7.9
2017-Nov-19 08:30N 32°37' W 117°51'4 7.8
2017-Nov-19 08:00N 32°34' W 117°54'12 7.7
2017-Nov-19 06:27N 32°23' W 118°01'12 7.8
2017-Nov-19 04:56N 32°13' W 118°08'4 7.8
2017-Nov-19 04:24N 32°09' W 118°11'3 8.0
2017-Nov-19 03:59N 32°07' W 118°13'3 5.0
2017-Nov-19 03:26N 32°04' W 118°15'0 0.1
2017-Nov-19 02:59N 32°04' W 118°15'0 0.0
2017-Nov-19 02:29N 32°04' W 118°15'0 0.0
2017-Nov-19 02:00N 32°04' W 118°15'0 0.0
2017-Nov-19 01:28N 32°04' W 118°15'0 0.0
2017-Nov-19 01:00N 32°04' W 118°15'0 0.0
2017-Nov-19 00:28N 32°04' W 118°15'2 3.3
2017-Nov-19 00:00N 32°06' W 118°14'510.4
2017-Nov-18 23:29N 32°10' W 118°10'5 9.7
2017-Nov-18 23:00N 32°14' W 118°07'17 8.7
2017-Nov-18 21:02N 32°28' W 117°55'22 5.3
2017-Nov-18 16:51N 32°29' W 118°21'6 3.4
2017-Nov-18 15:12N 32°34' W 118°18'1 7.4
2017-Nov-18 15:00N 32°33' W 118°16'2 3.9
2017-Nov-18 14:30N 32°32' W 118°18'2 1.1
2017-Nov-18 12:49N 32°31' W 118°20'1 3.1
2017-Nov-18 12:27N 32°32' W 118°19'3 6.6
2017-Nov-18 12:00N 32°34' W 118°17'5 8.4
2017-Nov-18 11:25N 32°38' W 118°13'27 8.0
2017-Nov-18 08:01N 32°55' W 117°47'0 9.5
2017-Nov-18 08:00N 32°55' W 117°47'4 8.1
2017-Nov-18 07:30N 32°58' W 117°44'4 7.9
2017-Nov-18 07:00N 33°00' W 117°40'4 7.8
2017-Nov-18 06:30N 33°03' W 117°37'4 7.9
2017-Nov-18 06:00N 33°06' W 117°33'4 8.2
2017-Nov-18 05:30N 33°08' W 117°30'4 8.2
2017-Nov-18 05:00N 33°11' W 117°26'2 4.8
2017-Nov-18 04:30N 33°12' W 117°24'0 0.4
2017-Nov-18 03:59N 33°12' W 117°23'0 0.0
2017-Nov-18 03:30N 33°12' W 117°23'0 0.0
2017-Nov-18 03:00N 33°12' W 117°23'0 0.0
2017-Nov-18 02:30N 33°12' W 117°23'0 0.0
2017-Nov-18 02:00N 33°12' W 117°23'0 0.0
2017-Nov-18 01:30N 33°12' W 117°23'0 0.0
2017-Nov-18 01:00N 33°12' W 117°23'0 0.0
2017-Nov-18 00:30N 33°12' W 117°23'0 0.0
2017-Nov-18 00:00N 33°12' W 117°23'0 0.6
2017-Nov-17 23:30N 33°12' W 117°24'0 0.5
2017-Nov-17 22:59N 33°12' W 117°23'0 0.0
2017-Nov-17 22:30N 33°12' W 117°23'0 0.0
2017-Nov-17 22:00N 33°12' W 117°23'0 0.0
2017-Nov-17 21:29N 33°12' W 117°23'0 0.0
2017-Nov-17 21:00N 33°12' W 117°23'0 0.0
2017-Nov-17 20:29N 33°12' W 117°23'0 0.0
2017-Nov-17 20:00N 33°12' W 117°23'0 0.0
2017-Nov-17 19:29N 33°12' W 117°23'0 0.0
2017-Nov-17 19:00N 33°12' W 117°23'0 0.0
2017-Nov-17 18:30N 33°12' W 117°23'0 0.0
2017-Nov-17 18:00N 33°12' W 117°23'0 0.0
2017-Nov-17 17:29N 33°12' W 117°23'0 0.0
2017-Nov-17 17:00N 33°12' W 117°23'0 0.0
2017-Nov-17 16:30N 33°12' W 117°23'0 0.0
2017-Nov-17 15:58N 33°12' W 117°23'0 0.0
2017-Nov-17 15:30N 33°12' W 117°23'0 0.0
2017-Nov-17 15:00N 33°12' W 117°23'0 0.0
2017-Nov-17 14:20N 33°12' W 117°23'0 0.0
2017-Nov-17 13:54N 33°12' W 117°23'0 0.0
2017-Nov-17 13:30N 33°12' W 117°23'0 0.0
2017-Nov-17 13:00N 33°12' W 117°23'0 0.0
2017-Nov-17 12:30N 33°12' W 117°23'0 0.0
2017-Nov-17 11:58N 33°12' W 117°23'0 0.0
2017-Nov-17 11:23N 33°12' W 117°23'0 0.0
2017-Nov-17 10:59N 33°12' W 117°23'0 0.0
2017-Nov-17 10:30N 33°12' W 117°23'0 0.0
2017-Nov-17 10:00N 33°12' W 117°23'0 0.0
2017-Nov-17 09:30N 33°12' W 117°23'1 1.8
2017-Nov-17 09:00N 33°12' W 117°24'3 7.0
2017-Nov-17 08:30N 33°09' W 117°27'4 8.2
2017-Nov-17 08:01N 33°06' W 117°30'4 8.4
2017-Nov-17 07:30N 33°03' W 117°33'4 8.2
2017-Nov-17 07:00N 32°59' W 117°36'4 8.1
2017-Nov-17 06:30N 32°57' W 117°39'4 8.3
2017-Nov-17 06:00N 32°54' W 117°44'4 8.3
2017-Nov-17 05:30N 32°52' W 117°47'4 8.3
2017-Nov-17 05:00N 32°49' W 117°51'4 8.5
2017-Nov-17 04:30N 32°46' W 117°55'4 8.3
2017-Nov-17 03:59N 32°43' W 117°58'4 8.1
2017-Nov-17 03:30N 32°40' W 118°02'4 8.4
2017-Nov-17 03:00N 32°37' W 118°05'4 8.5
2017-Nov-17 02:30N 32°34' W 118°09'1 2.5
2017-Nov-17 02:00N 32°34' W 118°10'1 1.4
2017-Nov-17 01:30N 32°34' W 118°11'0 0.6
2017-Nov-17 01:00N 32°34' W 118°11'0 0.4
2017-Nov-17 00:30N 32°34' W 118°11'3 6.6
2017-Nov-17 00:00N 32°32' W 118°14'4 9.0
2017-Nov-16 23:30N 32°30' W 118°09'2 4.8
2017-Nov-16 23:00N 32°29' W 118°06'1 2.7
2017-Nov-16 22:30N 32°27' W 118°06'4 7.1
2017-Nov-16 22:00N 32°25' W 118°10'3 6.6
2017-Nov-16 21:30N 32°22' W 118°12'4 8.5
2017-Nov-16 21:00N 32°19' W 118°15'3 5.3
2017-Nov-16 20:30N 32°17' W 118°17'0 0.8
2017-Nov-16 20:00N 32°17' W 118°17'0 0.8
2017-Nov-16 19:30N 32°18' W 118°18'1 2.1
2017-Nov-16 19:00N 32°17' W 118°17'3 6.1
2017-Nov-16 18:30N 32°15' W 118°20'1 2.6
2017-Nov-16 17:59N 32°14' W 118°21'1 2.7
2017-Nov-16 17:30N 32°15' W 118°22'2 4.4
2017-Nov-16 17:00N 32°17' W 118°20'0 0.5
2017-Nov-16 16:30N 32°17' W 118°20'2 4.9
2017-Nov-16 16:00N 32°19' W 118°21'2 3.7
2017-Nov-16 15:24N 32°18' W 118°18'1 2.6
2017-Nov-16 15:00N 32°17' W 118°18'1 2.5
2017-Nov-16 14:30N 32°16' W 118°18'1 1.9
2017-Nov-16 13:59N 32°15' W 118°18'1 1.5
2017-Nov-16 13:30N 32°15' W 118°19'2 3.9
2017-Nov-16 13:00N 32°15' W 118°21'2 4.1
2017-Nov-16 12:29N 32°17' W 118°20'8 8.5
2017-Nov-16 11:33N 32°23' W 118°14'1 9.7
2017-Nov-16 11:30N 32°23' W 118°13'5 9.8
2017-Nov-16 11:00N 32°26' W 118°09'5 9.7
2017-Nov-16 10:30N 32°29' W 118°04'5 9.4
2017-Nov-16 10:00N 32°32' W 118°00'5 9.5
2017-Nov-16 09:30N 32°36' W 117°57'5 9.5
2017-Nov-16 09:00N 32°40' W 117°53'5 9.3
2017-Nov-16 08:30N 32°43' W 117°49'5 9.6
2017-Nov-16 08:00N 32°47' W 117°46'5 9.6
2017-Nov-16 07:30N 32°51' W 117°43'5 9.7
2017-Nov-16 07:00N 32°55' W 117°39'5 9.7
2017-Nov-16 06:30N 32°59' W 117°36'5 9.6
2017-Nov-16 06:00N 33°03' W 117°33'5 9.6
2017-Nov-16 05:30N 33°07' W 117°29'5 9.7
2017-Nov-16 05:00N 33°11' W 117°26'3 5.4
2017-Nov-16 04:30N 33°12' W 117°24'0 0.4
2017-Nov-16 04:00N 33°12' W 117°23'0 0.0
2017-Nov-16 03:30N 33°12' W 117°23'0 0.0
2017-Nov-16 03:00N 33°12' W 117°23'0 0.0
2017-Nov-16 02:30N 33°12' W 117°23'0 0.0
2017-Nov-16 02:00N 33°12' W 117°23'0 0.0
2017-Nov-16 01:30N 33°12' W 117°23'0 0.0
2017-Nov-16 00:58N 33°12' W 117°23'0 0.0
2017-Nov-16 00:30N 33°12' W 117°23'0 0.0
2017-Nov-16 00:00N 33°12' W 117°23'0 0.0
2017-Nov-15 23:30N 33°12' W 117°23'0 0.0
2017-Nov-15 23:00N 33°12' W 117°23'0 0.0
2017-Nov-15 22:30N 33°12' W 117°23'0 0.0
2017-Nov-15 21:59N 33°12' W 117°23'0 0.0
2017-Nov-15 21:30N 33°12' W 117°23'0 0.0
2017-Nov-15 20:59N 33°12' W 117°23'0 0.0
2017-Nov-15 20:30N 33°12' W 117°23'0 0.0
2017-Nov-15 20:00N 33°12' W 117°23'0 0.0
2017-Nov-15 19:29N 33°12' W 117°23'0 0.0
2017-Nov-15 19:00N 33°12' W 117°23'0 0.0
2017-Nov-15 18:30N 33°12' W 117°23'0 0.0
2017-Nov-15 18:00N 33°12' W 117°23'0 0.0
2017-Nov-15 17:30N 33°12' W 117°23'0 0.0
2017-Nov-15 16:58N 33°12' W 117°23'0 0.0
2017-Nov-15 16:30N 33°12' W 117°23'0 0.0
2017-Nov-15 15:59N 33°12' W 117°23'0 0.0
2017-Nov-15 15:27N 33°12' W 117°23'0 0.0
2017-Nov-15 14:49N 33°12' W 117°23'0 0.0
2017-Nov-15 14:28N 33°12' W 117°23'0 0.0
2017-Nov-15 14:00N 33°12' W 117°23'0 0.0
2017-Nov-15 12:48N 33°12' W 117°23'0 0.0
2017-Nov-15 12:28N 33°12' W 117°23'0 0.0
2017-Nov-15 11:58N 33°12' W 117°23'0 0.0
2017-Nov-15 11:28N 33°12' W 117°23'0 0.0
2017-Nov-15 10:50N 33°12' W 117°23'0 0.0
2017-Nov-15 10:29N 33°12' W 117°23'0 0.0
2017-Nov-15 09:59N 33°12' W 117°23'0 0.0
2017-Nov-15 09:29N 33°12' W 117°23'0 0.2
2017-Nov-15 09:00N 33°12' W 117°24'3 7.0
2017-Nov-15 08:30N 33°10' W 117°27'4 8.1
2017-Nov-15 08:00N 33°07' W 117°30'4 8.1
2017-Nov-15 07:30N 33°05' W 117°34'4 8.3
2017-Nov-15 07:01N 33°02' W 117°38'4 8.3
2017-Nov-15 06:30N 33°01' W 117°42'4 8.3
2017-Nov-15 06:00N 32°58' W 117°46'4 7.9
2017-Nov-15 05:30N 32°55' W 117°49'4 8.1
2017-Nov-15 05:00N 32°52' W 117°53'4 7.8
2017-Nov-15 04:30N 32°49' W 117°56'4 8.0
2017-Nov-15 04:00N 32°47' W 117°59'4 7.9
2017-Nov-15 03:30N 32°44' W 118°03'4 7.7
2017-Nov-15 03:00N 32°41' W 118°06'4 7.6
2017-Nov-15 02:29N 32°38' W 118°09'4 8.1
2017-Nov-15 01:56N 32°35' W 118°13'3 8.0
2017-Nov-15 01:30N 32°33' W 118°16'2 4.3
2017-Nov-15 01:00N 32°31' W 118°18'2 3.1
2017-Nov-15 00:30N 32°30' W 118°16'2 4.4
2017-Nov-15 00:00N 32°29' W 118°14'2 4.0
2017-Nov-14 23:30N 32°30' W 118°12'2 3.5
2017-Nov-14 22:58N 32°29' W 118°10'1 2.0
2017-Nov-14 22:30N 32°29' W 118°09'2 4.2
2017-Nov-14 22:00N 32°31' W 118°08'4 7.9
2017-Nov-14 21:28N 32°28' W 118°04'4 8.3
2017-Nov-14 21:00N 32°26' W 118°00'1 2.4
2017-Nov-14 20:30N 32°26' W 118°02'0 0.9
2017-Nov-14 20:00N 32°26' W 118°02'0 0.6
2017-Nov-14 19:30N 32°27' W 118°02'0 0.9
2017-Nov-14 19:00N 32°26' W 118°02'0 0.4
2017-Nov-14 18:30N 32°26' W 118°02'0 0.6
2017-Nov-14 18:00N 32°27' W 118°02'4 7.5
2017-Nov-14 17:30N 32°30' W 118°02'3 6.9
2017-Nov-14 17:00N 32°28' W 118°05'1 1.5
2017-Nov-14 16:30N 32°28' W 118°06'3 5.7
2017-Nov-14 16:00N 32°28' W 118°03'2 3.8
2017-Nov-14 15:28N 32°29' W 118°01'1 2.1
2017-Nov-14 15:00N 32°28' W 118°01'3 5.3
2017-Nov-14 14:30N 32°30' W 118°03'1 1.3
2017-Nov-14 14:00N 32°30' W 118°02'2 4.2
2017-Nov-14 13:29N 32°30' W 117°59'1 2.7
2017-Nov-14 13:00N 32°29' W 117°59'3 5.6
2017-Nov-14 12:30N 32°31' W 117°59'3 6.0
2017-Nov-14 12:00N 32°34' W 117°57'3 6.0
2017-Nov-14 11:30N 32°37' W 117°56'3 6.1
2017-Nov-14 11:00N 32°39' W 117°54'4 6.3
2017-Nov-14 10:23N 32°43' W 117°52'4 6.4
2017-Nov-14 09:50N 32°46' W 117°49'2 6.4
2017-Nov-14 09:30N 32°47' W 117°48'3 6.5
2017-Nov-14 09:00N 32°50' W 117°46'3 6.5
2017-Nov-14 08:30N 32°52' W 117°42'3 6.6
2017-Nov-14 08:00N 32°54' W 117°39'3 6.6
2017-Nov-14 07:30N 32°56' W 117°37'3 6.7
2017-Nov-14 07:00N 32°59' W 117°35'3 6.7
2017-Nov-14 06:30N 33°02' W 117°33'3 6.8
2017-Nov-14 06:00N 33°05' W 117°30'3 6.9
2017-Nov-14 05:30N 33°08' W 117°28'4 7.1
2017-Nov-14 05:00N 33°11' W 117°25'2 4.8
2017-Nov-14 04:30N 33°12' W 117°24'0 0.4
2017-Nov-14 04:00N 33°12' W 117°23'0 0.0
2017-Nov-14 03:30N 33°12' W 117°23'0 0.0
2017-Nov-14 03:00N 33°12' W 117°23'0 0.0
2017-Nov-14 02:30N 33°12' W 117°23'0 0.0
2017-Nov-14 01:58N 33°12' W 117°23'0 0.0
2017-Nov-14 01:26N 33°12' W 117°23'0 0.0
2017-Nov-14 01:00N 33°12' W 117°23'0 0.0
2017-Nov-14 00:19N 33°12' W 117°23'0 0.0
2017-Nov-14 00:00N 33°12' W 117°23'0 0.0
2017-Nov-13 23:27N 33°12' W 117°23'0 0.0
2017-Nov-13 22:57N 33°12' W 117°23'0 0.0
2017-Nov-13 22:29N 33°12' W 117°23'0 0.0
2017-Nov-13 22:00N 33°12' W 117°23'0 0.0
2017-Nov-13 02:00N 33°12' W 117°23'0 0.0
2017-Nov-13 01:30N 33°12' W 117°23'0 0.0
2017-Nov-13 00:59N 33°12' W 117°23'0 0.0
2017-Nov-13 00:26N 33°12' W 117°23'0 0.0
2017-Nov-12 23:58N 33°12' W 117°23'0 0.0
2017-Nov-12 23:26N 33°12' W 117°23'0 0.0
2017-Nov-12 22:58N 33°12' W 117°23'0 0.0
2017-Nov-12 22:30N 33°12' W 117°23'0 0.0
2017-Nov-12 21:54N 33°12' W 117°23'0 0.0
2017-Nov-12 21:27N 33°12' W 117°23'0 0.0
2017-Nov-12 20:57N 33°12' W 117°23'0 0.0
2017-Nov-12 20:29N 33°12' W 117°23'0 0.0
2017-Nov-12 19:55N 33°12' W 117°23'0 0.0
2017-Nov-12 18:13N 33°12' W 117°23'0 0.0
2017-Nov-12 18:00N 33°12' W 117°23'0 0.0
2017-Nov-12 17:30N 33°12' W 117°23'0 0.0
2017-Nov-12 16:53N 33°12' W 117°23'0 0.0
2017-Nov-12 16:29N 33°12' W 117°23'0 0.0
2017-Nov-12 16:00N 33°12' W 117°23'0 0.0
2017-Nov-12 15:28N 33°12' W 117°23'0 0.0
2017-Nov-12 15:00N 33°12' W 117°23'0 0.0
2017-Nov-12 14:30N 33°12' W 117°23'0 0.0
2017-Nov-12 13:58N 33°12' W 117°23'0 0.0
2017-Nov-12 13:29N 33°12' W 117°23'0 0.0
2017-Nov-12 12:46N 33°12' W 117°23'0 0.0
2017-Nov-12 12:30N 33°12' W 117°23'0 0.0
2017-Nov-12 11:54N 33°12' W 117°23'0 0.0
2017-Nov-12 11:24N 33°12' W 117°23'0 0.0
2017-Nov-12 09:35N 33°12' W 117°23'0 0.0
2017-Nov-12 09:30N 33°12' W 117°23'3 6.5
2017-Nov-12 09:00N 33°11' W 117°27'5 9.3
2017-Nov-12 08:30N 33°08' W 117°31'5 9.3
2017-Nov-12 08:00N 33°05' W 117°35'5 9.2
2017-Nov-12 07:30N 33°01' W 117°39'5 9.2
2017-Nov-12 07:00N 32°58' W 117°43'14 9.2
2017-Nov-12 05:26N 32°49' W 117°56'5 9.0
2017-Nov-12 04:51N 32°45' W 118°00'5 8.8
2017-Nov-12 04:18N 32°42' W 118°05'3 8.8
2017-Nov-12 04:00N 32°40' W 118°07'12 8.8
2017-Nov-12 02:39N 32°32' W 118°17'6 8.7
2017-Nov-12 01:59N 32°28' W 118°22'4 8.8
2017-Nov-12 01:29N 32°25' W 118°26'2 3.6
2017-Nov-12 00:57N 32°27' W 118°25'4 2.6
2017-Nov-11 23:33N 32°28' W 118°21'1 8.4
2017-Nov-11 23:29N 32°28' W 118°21'6 3.9
2017-Nov-11 22:01N 32°30' W 118°14'0 0.0
2017-Nov-11 22:00N 32°30' W 118°14'8 0.9
2017-Nov-11 13:47N 32°36' W 118°19'35 5.9
2017-Nov-11 07:49N 32°56' W 117°45'2 7.9
2017-Nov-11 07:30N 32°58' W 117°42'4 7.9
2017-Nov-11 07:00N 33°00' W 117°39'4 7.9
2017-Nov-11 06:30N 33°03' W 117°36'4 7.8
2017-Nov-11 06:00N 33°06' W 117°32'4 7.7
2017-Nov-11 05:30N 33°09' W 117°29'4 7.6
2017-Nov-11 05:00N 33°11' W 117°26'2 4.3
2017-Nov-11 04:30N 33°12' W 117°24'0 0.4
2017-Nov-11 03:59N 33°12' W 117°23'0 0.0
2017-Nov-11 03:30N 33°12' W 117°23'0 0.0
2017-Nov-11 02:46N 33°12' W 117°23'0 0.0
2017-Nov-11 02:30N 33°12' W 117°23'0 0.0
2017-Nov-11 02:00N 33°12' W 117°23'0 0.0
2017-Nov-11 01:21N 33°12' W 117°23'0 0.0
2017-Nov-11 01:00N 33°12' W 117°23'0 0.0
2017-Nov-11 00:16N 33°12' W 117°23'0 0.0
2017-Nov-10 23:59N 33°12' W 117°23'0 0.0
2017-Nov-10 23:29N 33°12' W 117°23'0 0.0
2017-Nov-10 22:59N 33°12' W 117°23'0 0.0
2017-Nov-10 22:20N 33°12' W 117°23'0 0.0
2017-Nov-10 21:58N 33°12' W 117°23'0 0.0
2017-Nov-10 21:29N 33°12' W 117°23'0 0.0
2017-Nov-10 19:50N 33°12' W 117°23'0 0.0
2017-Nov-10 19:20N 33°12' W 117°23'0 0.0
2017-Nov-10 18:58N 33°12' W 117°23'0 0.0
2017-Nov-10 18:30N 33°12' W 117°23'0 0.0
2017-Nov-10 18:00N 33°12' W 117°23'0 0.0
2017-Nov-10 17:23N 33°12' W 117°23'0 0.0
2017-Nov-10 17:00N 33°12' W 117°23'0 0.0
2017-Nov-10 16:26N 33°12' W 117°23'0 0.0
2017-Nov-10 15:50N 33°12' W 117°23'0 0.0
2017-Nov-10 15:26N 33°12' W 117°23'0 0.0
2017-Nov-10 15:00N 33°12' W 117°23'0 0.0
2017-Nov-10 14:29N 33°12' W 117°23'0 0.0
2017-Nov-10 13:55N 33°12' W 117°23'0 0.0
2017-Nov-10 13:27N 33°12' W 117°23'0 0.0
2017-Nov-10 12:58N 33°12' W 117°23'0 0.0
2017-Nov-10 12:29N 33°12' W 117°23'0 0.0
2017-Nov-10 12:00N 33°12' W 117°23'0 0.0
2017-Nov-10 11:30N 33°12' W 117°23'0 0.0
2017-Nov-10 11:00N 33°12' W 117°23'0 0.0
2017-Nov-10 10:24N 33°12' W 117°23'0 0.0
2017-Nov-10 10:00N 33°12' W 117°23'0 0.0
2017-Nov-10 09:30N 33°12' W 117°23'0 0.0
2017-Nov-10 08:59N 33°12' W 117°23'0 0.0
2017-Nov-10 08:30N 33°12' W 117°23'0 0.0
2017-Nov-10 07:58N 33°12' W 117°23'0 0.0
2017-Nov-10 07:30N 33°12' W 117°23'0 0.0
2017-Nov-10 06:57N 33°12' W 117°23'0 0.0
2017-Nov-10 06:30N 33°12' W 117°23'0 0.0
2017-Nov-10 05:58N 33°12' W 117°23'0 0.0
2017-Nov-10 05:29N 33°12' W 117°23'0 0.0
2017-Nov-10 04:59N 33°12' W 117°23'3 5.8
2017-Nov-10 04:30N 33°11' W 117°26'5 9.6
2017-Nov-10 04:00N 33°09' W 117°31'5 9.7
2017-Nov-10 03:30N 33°07' W 117°37'510.0
2017-Nov-10 03:00N 33°05' W 117°42'510.1
2017-Nov-10 02:30N 33°02' W 117°48'510.3
2017-Nov-10 02:00N 33°00' W 117°53'510.2
2017-Nov-10 01:30N 32°58' W 117°58'27 8.0
2017-Nov-09 22:05N 32°50' W 118°29'  
Track history (hours):
 
Tides and Currents Weather Stations Pressure Air Temp Water Temp Dewpoint Dewpoint Depression Visibility Wind Speed Wind Dir Waves Ship Positions

Oceanside 95

Owner: HELGRENS OCEANSIDE SPORTFISHING TRIPS IN, OCEANSIDE, CA. More information available from US FCC via Universal Licensing System and Coast Guard Vessel Documentation Center.

Last reported at 2017-Nov-19 21:30 UTC. Time now 2017-Nov-19 21:57 UTC.
Position N 33°12' W 117°23'.

Type: Wing in ground effect craft. MMSI: 367150450.

Date/timePositionNaut miles runAvg speedWind from/ knotsBaromVisibWave heightAir tempDewpointWater temp
2017-Nov-19 21:30N 33°12' W 117°23'0 0.0
2017-Nov-19 21:00N 33°12' W 117°23'0 0.0
2017-Nov-19 20:30N 33°12' W 117°23'0 0.0
2017-Nov-19 20:00N 33°12' W 117°23'0 0.0
2017-Nov-19 19:30N 33°12' W 117°23'0 0.0
2017-Nov-19 19:00N 33°12' W 117°23'0 0.0
2017-Nov-19 18:30N 33°12' W 117°23'0 0.0
2017-Nov-19 17:59N 33°12' W 117°23'0 0.0
2017-Nov-19 17:30N 33°12' W 117°23'0 0.0
2017-Nov-19 16:59N 33°12' W 117°23'0 0.0
2017-Nov-19 16:30N 33°12' W 117°23'0 0.0
2017-Nov-19 16:00N 33°12' W 117°23'0 0.0
2017-Nov-19 15:26N 33°12' W 117°23'0 0.0
2017-Nov-19 14:58N 33°12' W 117°23'0 0.0
2017-Nov-19 14:30N 33°12' W 117°23'0 0.0
2017-Nov-19 14:00N 33°12' W 117°23'3 5.9
2017-Nov-19 13:30N 33°10' W 117°26'4 7.9
2017-Nov-19 13:00N 33°07' W 117°28'4 8.0
2017-Nov-19 12:30N 33°04' W 117°31'4 8.0
2017-Nov-19 12:00N 33°00' W 117°34'4 8.0
2017-Nov-19 11:30N 32°57' W 117°36'4 8.1
2017-Nov-19 11:00N 32°53' W 117°39'4 8.0
2017-Nov-19 10:30N 32°50' W 117°41'4 7.8
2017-Nov-19 10:00N 32°47' W 117°44'4 7.8
2017-Nov-19 09:30N 32°43' W 117°46'4 7.8
2017-Nov-19 09:00N 32°40' W 117°49'4 7.9
2017-Nov-19 08:30N 32°37' W 117°51'4 7.8
2017-Nov-19 08:00N 32°34' W 117°54'12 7.7
2017-Nov-19 06:27N 32°23' W 118°01'12 7.8
2017-Nov-19 04:56N 32°13' W 118°08'4 7.8
2017-Nov-19 04:24N 32°09' W 118°11'3 8.0
2017-Nov-19 03:59N 32°07' W 118°13'3 5.0
2017-Nov-19 03:26N 32°04' W 118°15'0 0.1
2017-Nov-19 02:59N 32°04' W 118°15'0 0.0
2017-Nov-19 02:29N 32°04' W 118°15'0 0.0
2017-Nov-19 02:00N 32°04' W 118°15'0 0.0
2017-Nov-19 01:28N 32°04' W 118°15'0 0.0
2017-Nov-19 01:00N 32°04' W 118°15'0 0.0
2017-Nov-19 00:28N 32°04' W 118°15'2 3.3
2017-Nov-19 00:00N 32°06' W 118°14'510.4
2017-Nov-18 23:29N 32°10' W 118°10'5 9.7
2017-Nov-18 23:00N 32°14' W 118°07'17 8.7
2017-Nov-18 21:02N 32°28' W 117°55'22 5.3
2017-Nov-18 16:51N 32°29' W 118°21'6 3.4
2017-Nov-18 15:12N 32°34' W 118°18'1 7.4
2017-Nov-18 15:00N 32°33' W 118°16'2 3.9
2017-Nov-18 14:30N 32°32' W 118°18'2 1.1
2017-Nov-18 12:49N 32°31' W 118°20'1 3.1
2017-Nov-18 12:27N 32°32' W 118°19'3 6.6
2017-Nov-18 12:00N 32°34' W 118°17'5 8.4
2017-Nov-18 11:25N 32°38' W 118°13'27 8.0
2017-Nov-18 08:01N 32°55' W 117°47'0 9.5
2017-Nov-18 08:00N 32°55' W 117°47'4 8.1
2017-Nov-18 07:30N 32°58' W 117°44'4 7.9
2017-Nov-18 07:00N 33°00' W 117°40'4 7.8
2017-Nov-18 06:30N 33°03' W 117°37'4 7.9
2017-Nov-18 06:00N 33°06' W 117°33'4 8.2
2017-Nov-18 05:30N 33°08' W 117°30'4 8.2
2017-Nov-18 05:00N 33°11' W 117°26'2 4.8
2017-Nov-18 04:30N 33°12' W 117°24'0 0.4
2017-Nov-18 03:59N 33°12' W 117°23'0 0.0
2017-Nov-18 03:30N 33°12' W 117°23'0 0.0
2017-Nov-18 03:00N 33°12' W 117°23'0 0.0
2017-Nov-18 02:30N 33°12' W 117°23'0 0.0
2017-Nov-18 02:00N 33°12' W 117°23'0 0.0
2017-Nov-18 01:30N 33°12' W 117°23'0 0.0
2017-Nov-18 01:00N 33°12' W 117°23'0 0.0
2017-Nov-18 00:30N 33°12' W 117°23'0 0.0
2017-Nov-18 00:00N 33°12' W 117°23'0 0.6
2017-Nov-17 23:30N 33°12' W 117°24'0 0.5
2017-Nov-17 22:59N 33°12' W 117°23'0 0.0
2017-Nov-17 22:30N 33°12' W 117°23'0 0.0
2017-Nov-17 22:00N 33°12' W 117°23'0 0.0
2017-Nov-17 21:29N 33°12' W 117°23'0 0.0
2017-Nov-17 21:00N 33°12' W 117°23'0 0.0
2017-Nov-17 20:29N 33°12' W 117°23'0 0.0
2017-Nov-17 20:00N 33°12' W 117°23'0 0.0
2017-Nov-17 19:29N 33°12' W 117°23'0 0.0
2017-Nov-17 19:00N 33°12' W 117°23'0 0.0
2017-Nov-17 18:30N 33°12' W 117°23'0 0.0
2017-Nov-17 18:00N 33°12' W 117°23'0 0.0
2017-Nov-17 17:29N 33°12' W 117°23'0 0.0
2017-Nov-17 17:00N 33°12' W 117°23'0 0.0
2017-Nov-17 16:30N 33°12' W 117°23'0 0.0
2017-Nov-17 15:58N 33°12' W 117°23'0 0.0
2017-Nov-17 15:30N 33°12' W 117°23'0 0.0
2017-Nov-17 15:00N 33°12' W 117°23'0 0.0
2017-Nov-17 14:20N 33°12' W 117°23'0 0.0
2017-Nov-17 13:54N 33°12' W 117°23'0 0.0
2017-Nov-17 13:30N 33°12' W 117°23'0 0.0
2017-Nov-17 13:00N 33°12' W 117°23'0 0.0
2017-Nov-17 12:30N 33°12' W 117°23'0 0.0
2017-Nov-17 11:58N 33°12' W 117°23'0 0.0
2017-Nov-17 11:23N 33°12' W 117°23'0 0.0
2017-Nov-17 10:59N 33°12' W 117°23'0 0.0
2017-Nov-17 10:30N 33°12' W 117°23'0 0.0
2017-Nov-17 10:00N 33°12' W 117°23'0 0.0
2017-Nov-17 09:30N 33°12' W 117°23'1 1.8
2017-Nov-17 09:00N 33°12' W 117°24'3 7.0
2017-Nov-17 08:30N 33°09' W 117°27'4 8.2
2017-Nov-17 08:01N 33°06' W 117°30'4 8.4
2017-Nov-17 07:30N 33°03' W 117°33'4 8.2
2017-Nov-17 07:00N 32°59' W 117°36'4 8.1
2017-Nov-17 06:30N 32°57' W 117°39'4 8.3
2017-Nov-17 06:00N 32°54' W 117°44'4 8.3
2017-Nov-17 05:30N 32°52' W 117°47'4 8.3
2017-Nov-17 05:00N 32°49' W 117°51'4 8.5
2017-Nov-17 04:30N 32°46' W 117°55'4 8.3
2017-Nov-17 03:59N 32°43' W 117°58'4 8.1
2017-Nov-17 03:30N 32°40' W 118°02'4 8.4
2017-Nov-17 03:00N 32°37' W 118°05'4 8.5
2017-Nov-17 02:30N 32°34' W 118°09'1 2.5
2017-Nov-17 02:00N 32°34' W 118°10'1 1.4
2017-Nov-17 01:30N 32°34' W 118°11'0 0.6
2017-Nov-17 01:00N 32°34' W 118°11'0 0.4
2017-Nov-17 00:30N 32°34' W 118°11'3 6.6
2017-Nov-17 00:00N 32°32' W 118°14'4 9.0
2017-Nov-16 23:30N 32°30' W 118°09'2 4.8
2017-Nov-16 23:00N 32°29' W 118°06'1 2.7
2017-Nov-16 22:30N 32°27' W 118°06'4 7.1
2017-Nov-16 22:00N 32°25' W 118°10'3 6.6
2017-Nov-16 21:30N 32°22' W 118°12'4 8.5
2017-Nov-16 21:00N 32°19' W 118°15'3 5.3
2017-Nov-16 20:30N 32°17' W 118°17'0 0.8
2017-Nov-16 20:00N 32°17' W 118°17'0 0.8
2017-Nov-16 19:30N 32°18' W 118°18'1 2.1
2017-Nov-16 19:00N 32°17' W 118°17'3 6.1
2017-Nov-16 18:30N 32°15' W 118°20'1 2.6
2017-Nov-16 17:59N 32°14' W 118°21'1 2.7
2017-Nov-16 17:30N 32°15' W 118°22'2 4.4
2017-Nov-16 17:00N 32°17' W 118°20'0 0.5
2017-Nov-16 16:30N 32°17' W 118°20'2 4.9
2017-Nov-16 16:00N 32°19' W 118°21'2 3.7
2017-Nov-16 15:24N 32°18' W 118°18'1 2.6
2017-Nov-16 15:00N 32°17' W 118°18'1 2.5
2017-Nov-16 14:30N 32°16' W 118°18'1 1.9
2017-Nov-16 13:59N 32°15' W 118°18'1 1.5
2017-Nov-16 13:30N 32°15' W 118°19'2 3.9
2017-Nov-16 13:00N 32°15' W 118°21'2 4.1
2017-Nov-16 12:29N 32°17' W 118°20'8 8.5
2017-Nov-16 11:33N 32°23' W 118°14'1 9.7
2017-Nov-16 11:30N 32°23' W 118°13'5 9.8
2017-Nov-16 11:00N 32°26' W 118°09'5 9.7
2017-Nov-16 10:30N 32°29' W 118°04'5 9.4
2017-Nov-16 10:00N 32°32' W 118°00'5 9.5
2017-Nov-16 09:30N 32°36' W 117°57'5 9.5
2017-Nov-16 09:00N 32°40' W 117°53'5 9.3
2017-Nov-16 08:30N 32°43' W 117°49'5 9.6
2017-Nov-16 08:00N 32°47' W 117°46'5 9.6
2017-Nov-16 07:30N 32°51' W 117°43'5 9.7
2017-Nov-16 07:00N 32°55' W 117°39'5 9.7
2017-Nov-16 06:30N 32°59' W 117°36'5 9.6
2017-Nov-16 06:00N 33°03' W 117°33'5 9.6
2017-Nov-16 05:30N 33°07' W 117°29'5 9.7
2017-Nov-16 05:00N 33°11' W 117°26'3 5.4
2017-Nov-16 04:30N 33°12' W 117°24'0 0.4
2017-Nov-16 04:00N 33°12' W 117°23'0 0.0
2017-Nov-16 03:30N 33°12' W 117°23'0 0.0
2017-Nov-16 03:00N 33°12' W 117°23'0 0.0
2017-Nov-16 02:30N 33°12' W 117°23'0 0.0
2017-Nov-16 02:00N 33°12' W 117°23'0 0.0
2017-Nov-16 01:30N 33°12' W 117°23'0 0.0
2017-Nov-16 00:58N 33°12' W 117°23'0 0.0
2017-Nov-16 00:30N 33°12' W 117°23'0 0.0
2017-Nov-16 00:00N 33°12' W 117°23'0 0.0
2017-Nov-15 23:30N 33°12' W 117°23'0 0.0
2017-Nov-15 23:00N 33°12' W 117°23'0 0.0
2017-Nov-15 22:30N 33°12' W 117°23'0 0.0
2017-Nov-15 21:59N 33°12' W 117°23'0 0.0
2017-Nov-15 21:30N 33°12' W 117°23'0 0.0
2017-Nov-15 20:59N 33°12' W 117°23'0 0.0
2017-Nov-15 20:30N 33°12' W 117°23'0 0.0
2017-Nov-15 20:00N 33°12' W 117°23'0 0.0
2017-Nov-15 19:29N 33°12' W 117°23'0 0.0
2017-Nov-15 19:00N 33°12' W 117°23'0 0.0
2017-Nov-15 18:30N 33°12' W 117°23'0 0.0
2017-Nov-15 18:00N 33°12' W 117°23'0 0.0
2017-Nov-15 17:30N 33°12' W 117°23'0 0.0
2017-Nov-15 16:58N 33°12' W 117°23'0 0.0
2017-Nov-15 16:30N 33°12' W 117°23'0 0.0
2017-Nov-15 15:59N 33°12' W 117°23'0 0.0
2017-Nov-15 15:27N 33°12' W 117°23'0 0.0
2017-Nov-15 14:49N 33°12' W 117°23'0 0.0
2017-Nov-15 14:28N 33°12' W 117°23'0 0.0
2017-Nov-15 14:00N 33°12' W 117°23'0 0.0
2017-Nov-15 12:48N 33°12' W 117°23'0 0.0
2017-Nov-15 12:28N 33°12' W 117°23'0 0.0
2017-Nov-15 11:58N 33°12' W 117°23'0 0.0
2017-Nov-15 11:28N 33°12' W 117°23'0 0.0
2017-Nov-15 10:50N 33°12' W 117°23'0 0.0
2017-Nov-15 10:29N 33°12' W 117°23'0 0.0
2017-Nov-15 09:59N 33°12' W 117°23'0 0.0
2017-Nov-15 09:29N 33°12' W 117°23'0 0.2
2017-Nov-15 09:00N 33°12' W 117°24'3 7.0
2017-Nov-15 08:30N 33°10' W 117°27'4 8.1
2017-Nov-15 08:00N 33°07' W 117°30'4 8.1
2017-Nov-15 07:30N 33°05' W 117°34'4 8.3
2017-Nov-15 07:01N 33°02' W 117°38'4 8.3
2017-Nov-15 06:30N 33°01' W 117°42'4 8.3
2017-Nov-15 06:00N 32°58' W 117°46'4 7.9
2017-Nov-15 05:30N 32°55' W 117°49'4 8.1
2017-Nov-15 05:00N 32°52' W 117°53'4 7.8
2017-Nov-15 04:30N 32°49' W 117°56'4 8.0
2017-Nov-15 04:00N 32°47' W 117°59'4 7.9
2017-Nov-15 03:30N 32°44' W 118°03'4 7.7
2017-Nov-15 03:00N 32°41' W 118°06'4 7.6
2017-Nov-15 02:29N 32°38' W 118°09'4 8.1
2017-Nov-15 01:56N 32°35' W 118°13'3 8.0
2017-Nov-15 01:30N 32°33' W 118°16'2 4.3
2017-Nov-15 01:00N 32°31' W 118°18'2 3.1
2017-Nov-15 00:30N 32°30' W 118°16'2 4.4
2017-Nov-15 00:00N 32°29' W 118°14'2 4.0
2017-Nov-14 23:30N 32°30' W 118°12'2 3.5
2017-Nov-14 22:58N 32°29' W 118°10'1 2.0
2017-Nov-14 22:30N 32°29' W 118°09'2 4.2
2017-Nov-14 22:00N 32°31' W 118°08'4 7.9
2017-Nov-14 21:28N 32°28' W 118°04'4 8.3
2017-Nov-14 21:00N 32°26' W 118°00'1 2.4
2017-Nov-14 20:30N 32°26' W 118°02'0 0.9
2017-Nov-14 20:00N 32°26' W 118°02'0 0.6
2017-Nov-14 19:30N 32°27' W 118°02'0 0.9
2017-Nov-14 19:00N 32°26' W 118°02'0 0.4
2017-Nov-14 18:30N 32°26' W 118°02'0 0.6
2017-Nov-14 18:00N 32°27' W 118°02'4 7.5
2017-Nov-14 17:30N 32°30' W 118°02'3 6.9
2017-Nov-14 17:00N 32°28' W 118°05'1 1.5
2017-Nov-14 16:30N 32°28' W 118°06'3 5.7
2017-Nov-14 16:00N 32°28' W 118°03'2 3.8
2017-Nov-14 15:28N 32°29' W 118°01'1 2.1
2017-Nov-14 15:00N 32°28' W 118°01'3 5.3
2017-Nov-14 14:30N 32°30' W 118°03'1 1.3
2017-Nov-14 14:00N 32°30' W 118°02'2 4.2
2017-Nov-14 13:29N 32°30' W 117°59'1 2.7
2017-Nov-14 13:00N 32°29' W 117°59'3 5.6
2017-Nov-14 12:30N 32°31' W 117°59'3 6.0
2017-Nov-14 12:00N 32°34' W 117°57'3 6.0
2017-Nov-14 11:30N 32°37' W 117°56'3 6.1
2017-Nov-14 11:00N 32°39' W 117°54'4 6.3
2017-Nov-14 10:23N 32°43' W 117°52'4 6.4
2017-Nov-14 09:50N 32°46' W 117°49'2 6.4
2017-Nov-14 09:30N 32°47' W 117°48'3 6.5
2017-Nov-14 09:00N 32°50' W 117°46'3 6.5
2017-Nov-14 08:30N 32°52' W 117°42'3 6.6
2017-Nov-14 08:00N 32°54' W 117°39'3 6.6
2017-Nov-14 07:30N 32°56' W 117°37'3 6.7
2017-Nov-14 07:00N 32°59' W 117°35'3 6.7
2017-Nov-14 06:30N 33°02' W 117°33'3 6.8
2017-Nov-14 06:00N 33°05' W 117°30'3 6.9
2017-Nov-14 05:30N 33°08' W 117°28'4 7.1
2017-Nov-14 05:00N 33°11' W 117°25'2 4.8
2017-Nov-14 04:30N 33°12' W 117°24'0 0.4
2017-Nov-14 04:00N 33°12' W 117°23'0 0.0
2017-Nov-14 03:30N 33°12' W 117°23'0 0.0
2017-Nov-14 03:00N 33°12' W 117°23'0 0.0
2017-Nov-14 02:30N 33°12' W 117°23'0 0.0
2017-Nov-14 01:58N 33°12' W 117°23'0 0.0
2017-Nov-14 01:26N 33°12' W 117°23'0 0.0
2017-Nov-14 01:00N 33°12' W 117°23'0 0.0
2017-Nov-14 00:19N 33°12' W 117°23'0 0.0
2017-Nov-14 00:00N 33°12' W 117°23'0 0.0
2017-Nov-13 23:27N 33°12' W 117°23'0 0.0
2017-Nov-13 22:57N 33°12' W 117°23'0 0.0
2017-Nov-13 22:29N 33°12' W 117°23'0 0.0
2017-Nov-13 22:00N 33°12' W 117°23'0 0.0
2017-Nov-13 02:00N 33°12' W 117°23'0 0.0
2017-Nov-13 01:30N 33°12' W 117°23'0 0.0
2017-Nov-13 00:59N 33°12' W 117°23'0 0.0
2017-Nov-13 00:26N 33°12' W 117°23'0 0.0
2017-Nov-12 23:58N 33°12' W 117°23'0 0.0
2017-Nov-12 23:26N 33°12' W 117°23'0 0.0
2017-Nov-12 22:58N 33°12' W 117°23'0 0.0
2017-Nov-12 22:30N 33°12' W 117°23'0 0.0
2017-Nov-12 21:54N 33°12' W 117°23'0 0.0
2017-Nov-12 21:27N 33°12' W 117°23'0 0.0
2017-Nov-12 20:57N 33°12' W 117°23'0 0.0
2017-Nov-12 20:29N 33°12' W 117°23'0 0.0
2017-Nov-12 19:55N 33°12' W 117°23'0 0.0
2017-Nov-12 18:13N 33°12' W 117°23'0 0.0
2017-Nov-12 18:00N 33°12' W 117°23'0 0.0
2017-Nov-12 17:30N 33°12' W 117°23'0 0.0
2017-Nov-12 16:53N 33°12' W 117°23'0 0.0
2017-Nov-12 16:29N 33°12' W 117°23'0 0.0
2017-Nov-12 16:00N 33°12' W 117°23'0 0.0
2017-Nov-12 15:28N 33°12' W 117°23'0 0.0
2017-Nov-12 15:00N 33°12' W 117°23'0 0.0
2017-Nov-12 14:30N 33°12' W 117°23'0 0.0
2017-Nov-12 13:58N 33°12' W 117°23'0 0.0
2017-Nov-12 13:29N 33°12' W 117°23'0 0.0
2017-Nov-12 12:46N 33°12' W 117°23'0 0.0
2017-Nov-12 12:30N 33°12' W 117°23'0 0.0
2017-Nov-12 11:54N 33°12' W 117°23'0 0.0
2017-Nov-12 11:24N 33°12' W 117°23'0 0.0
2017-Nov-12 09:35N 33°12' W 117°23'0 0.0
2017-Nov-12 09:30N 33°12' W 117°23'3 6.5
2017-Nov-12 09:00N 33°11' W 117°27'5 9.3
2017-Nov-12 08:30N 33°08' W 117°31'5 9.3
2017-Nov-12 08:00N 33°05' W 117°35'5 9.2
2017-Nov-12 07:30N 33°01' W 117°39'5 9.2
2017-Nov-12 07:00N 32°58' W 117°43'14 9.2
2017-Nov-12 05:26N 32°49' W 117°56'5 9.0
2017-Nov-12 04:51N 32°45' W 118°00'5 8.8
2017-Nov-12 04:18N 32°42' W 118°05'3 8.8
2017-Nov-12 04:00N 32°40' W 118°07'12 8.8
2017-Nov-12 02:39N 32°32' W 118°17'6 8.7
2017-Nov-12 01:59N 32°28' W 118°22'4 8.8
2017-Nov-12 01:29N 32°25' W 118°26'2 3.6
2017-Nov-12 00:57N 32°27' W 118°25'4 2.6
2017-Nov-11 23:33N 32°28' W 118°21'1 8.4
2017-Nov-11 23:29N 32°28' W 118°21'6 3.9
2017-Nov-11 22:01N 32°30' W 118°14'0 0.0
2017-Nov-11 22:00N 32°30' W 118°14'8 0.9
2017-Nov-11 13:47N 32°36' W 118°19'35 5.9
2017-Nov-11 07:49N 32°56' W 117°45'2 7.9
2017-Nov-11 07:30N 32°58' W 117°42'4 7.9
2017-Nov-11 07:00N 33°00' W 117°39'4 7.9
2017-Nov-11 06:30N 33°03' W 117°36'4 7.8
2017-Nov-11 06:00N 33°06' W 117°32'4 7.7
2017-Nov-11 05:30N 33°09' W 117°29'4 7.6
2017-Nov-11 05:00N 33°11' W 117°26'2 4.3
2017-Nov-11 04:30N 33°12' W 117°24'0 0.4
2017-Nov-11 03:59N 33°12' W 117°23'0 0.0
2017-Nov-11 03:30N 33°12' W 117°23'0 0.0
2017-Nov-11 02:46N 33°12' W 117°23'0 0.0
2017-Nov-11 02:30N 33°12' W 117°23'0 0.0
2017-Nov-11 02:00N 33°12' W 117°23'0 0.0
2017-Nov-11 01:21N 33°12' W 117°23'0 0.0
2017-Nov-11 01:00N 33°12' W 117°23'0 0.0
2017-Nov-11 00:16N 33°12' W 117°23'0 0.0
2017-Nov-10 23:59N 33°12' W 117°23'0 0.0
2017-Nov-10 23:29N 33°12' W 117°23'0 0.0
2017-Nov-10 22:59N 33°12' W 117°23'0 0.0
2017-Nov-10 22:20N 33°12' W 117°23'0 0.0
2017-Nov-10 21:58N 33°12' W 117°23'0 0.0
2017-Nov-10 21:29N 33°12' W 117°23'0 0.0
2017-Nov-10 19:50N 33°12' W 117°23'0 0.0
2017-Nov-10 19:20N 33°12' W 117°23'0 0.0
2017-Nov-10 18:58N 33°12' W 117°23'0 0.0
2017-Nov-10 18:30N 33°12' W 117°23'0 0.0
2017-Nov-10 18:00N 33°12' W 117°23'0 0.0
2017-Nov-10 17:23N 33°12' W 117°23'0 0.0
2017-Nov-10 17:00N 33°12' W 117°23'0 0.0
2017-Nov-10 16:26N 33°12' W 117°23'0 0.0
2017-Nov-10 15:50N 33°12' W 117°23'0 0.0
2017-Nov-10 15:26N 33°12' W 117°23'0 0.0
2017-Nov-10 15:00N 33°12' W 117°23'0 0.0
2017-Nov-10 14:29N 33°12' W 117°23'0 0.0
2017-Nov-10 13:55N 33°12' W 117°23'0 0.0
2017-Nov-10 13:27N 33°12' W 117°23'0 0.0
2017-Nov-10 12:58N 33°12' W 117°23'0 0.0
2017-Nov-10 12:29N 33°12' W 117°23'0 0.0
2017-Nov-10 12:00N 33°12' W 117°23'0 0.0
2017-Nov-10 11:30N 33°12' W 117°23'0 0.0
2017-Nov-10 11:00N 33°12' W 117°23'0 0.0
2017-Nov-10 10:24N 33°12' W 117°23'0 0.0
2017-Nov-10 10:00N 33°12' W 117°23'0 0.0
2017-Nov-10 09:30N 33°12' W 117°23'0 0.0
2017-Nov-10 08:59N 33°12' W 117°23'0 0.0
2017-Nov-10 08:30N 33°12' W 117°23'0 0.0
2017-Nov-10 07:58N 33°12' W 117°23'0 0.0
2017-Nov-10 07:30N 33°12' W 117°23'0 0.0
2017-Nov-10 06:57N 33°12' W 117°23'0 0.0
2017-Nov-10 06:30N 33°12' W 117°23'0 0.0
2017-Nov-10 05:58N 33°12' W 117°23'0 0.0
2017-Nov-10 05:29N 33°12' W 117°23'0 0.0
2017-Nov-10 04:59N 33°12' W 117°23'3 5.8
2017-Nov-10 04:30N 33°11' W 117°26'5 9.6
2017-Nov-10 04:00N 33°09' W 117°31'5 9.7
2017-Nov-10 03:30N 33°07' W 117°37'510.0
2017-Nov-10 03:00N 33°05' W 117°42'510.1
2017-Nov-10 02:30N 33°02' W 117°48'510.3
2017-Nov-10 02:00N 33°00' W 117°53'510.2
2017-Nov-10 01:30N 32°58' W 117°58'27 8.0
2017-Nov-09 22:05N 32°50' W 118°29'  

Dump ship's entire track history